Latest Coastal Weather Observations for Parndana

IDS60701

Issued at 12:21 pm CST Thursday 28 July 2016 (issued every 10 minutes, with the page automatically refreshed every 10 minutes)

About coastal observations | Map of coastal stations | Coastal observations for SA | Marine services | Other Formats
Station Details ID: 022843 Name: PARNDANA CFS AWS Lat: -35.79 Lon: 137.25 Height: 165.0 m
Data from the previous 72 hours. | See also: Recent months at Parndana
Date/Time
CST
Temp
°C
Wind Pressure Rain since
9am
mm
Weather Cloud Vis
km
Sea
Height
m
Swell
Dir  Spd
kts
Gust
kts
hPa Trend Height
m
Period
s
Dir
28/12:00pm 14.1 WNW 11 14 - - 0.2 - - - - - - -
28/11:30am 13.2 NW 12 16 - - 0.2 - - - - - - -
28/11:00am 13.1 WNW 10 14 - - 0.2 - - - - - - -
28/10:30am 12.6 WNW 12 17 - - 0.2 - - - - - - -
28/10:00am 11.8 WNW 11 15 - - 0.0 - - - - - - -
28/09:30am 11.5 WNW 10 14 - - 0.0 - - - - - - -
28/09:00am 11.3 WNW 12 16 - - 0.0 - - - - - - -
28/08:30am 10.6 W 6 9 - - 0.0 - - - - - - -
28/08:00am 10.3 WNW 4 7 - - 0.0 - - - - - - -
28/07:30am 10.1 NW 5 7 - - 0.0 - - - - - - -
28/07:00am 10.3 WNW 6 7 - - 0.0 - - - - - - -
28/06:30am 10.3 W 7 11 - - 0.0 - - - - - - -
28/06:00am 10.2 W 7 11 - - 0.0 - - - - - - -
28/05:30am 10.2 WNW 8 11 - - 0.0 - - - - - - -
28/05:00am 10.1 W 7 10 - - 0.0 - - - - - - -
28/04:30am 9.9 WNW 5 7 - - 0.0 - - - - - - -
28/04:00am 9.9 WNW 4 5 - - 0.0 - - - - - - -
28/03:30am 10.0 WNW 5 7 - - 0.0 - - - - - - -
28/03:00am 10.2 WNW 8 11 - - 0.0 - - - - - - -
28/02:30am 9.8 WNW 4 6 - - 0.0 - - - - - - -
28/02:00am 9.8 WNW 6 8 - - 0.0 - - - - - - -
28/01:30am 9.6 WNW 4 5 - - 0.0 - - - - - - -
28/01:00am 9.5 WNW 4 5 - - 0.0 - - - - - - -
28/12:30am 9.4 W 5 7 - - 0.0 - - - - - - -
28/12:00am 9.4 W 6 6 - - 0.0 - - - - - - -
 
Date/Time
CST
Temp
°C
Wind Pressure Rain since
9am
mm
Weather Cloud Vis
km
Sea
Height
m
Swell
Dir  Spd
kts
Gust
kts
hPa Trend Height
m
Period
s
Dir
27/11:30pm 10.0 WNW 11 13 - - 0.0 - - - - - - -
27/11:00pm 9.9 WNW 8 11 - - 0.0 - - - - - - -
27/10:30pm 9.4 NW 6 8 - - 0.0 - - - - - - -
27/10:00pm 10.0 WNW 8 12 - - 0.0 - - - - - - -
27/09:30pm 9.8 WNW 6 7 - - 0.0 - - - - - - -
27/09:00pm 9.4 WNW 6 8 - - 0.0 - - - - - - -
27/08:30pm 9.8 WNW 6 8 - - 0.0 - - - - - - -
27/08:00pm 9.6 W 4 5 - - 0.0 - - - - - - -
27/07:30pm 10.0 WNW 7 9 - - 0.0 - - - - - - -
27/07:00pm 10.1 WNW 6 9 - - 0.0 - - - - - - -
27/06:30pm 10.2 W 11 14 - - 0.0 - - - - - - -
27/06:00pm 10.4 W 9 12 - - 0.0 - - - - - - -
27/05:30pm 10.4 W 9 12 - - 0.0 - - - - - - -
27/05:00pm 10.8 W 9 13 - - 0.0 - - - - - - -
27/04:30pm 11.2 WNW 7 10 - - 0.0 - - - - - - -
27/04:00pm 11.7 W 10 13 - - 0.0 - - - - - - -
27/03:30pm 11.9 W 12 17 - - 0.0 - - - - - - -
27/03:00pm 11.5 WSW 10 14 - - 0.0 - - - - - - -
27/02:30pm 11.8 WSW 10 13 - - 0.0 - - - - - - -
27/02:00pm 11.7 WSW 11 14 - - 0.0 - - - - - - -
27/01:30pm 11.5 WSW 12 17 - - 0.0 - - - - - - -
27/01:00pm 11.7 SW 12 16 - - 0.0 - - - - - - -
27/12:30pm 11.8 WSW 11 15 - - 0.0 - - - - - - -
27/12:00pm 11.6 WSW 12 17 - - 0.0 - - - - - - -
27/11:30am 11.2 WSW 10 14 - - 0.0 - - - - - - -
27/11:00am 11.0 SW 10 16 - - 0.0 - - - - - - -
27/10:30am 10.8 SW 12 17 - - 0.0 - - - - - - -
27/10:00am 10.8 SW 10 13 - - 0.0 - - - - - - -
27/09:30am 10.3 SW 8 10 - - 0.0 - - - - - - -
27/09:00am 9.8 SW 8 12 - - 11.4 - - - - - - -
27/08:30am 9.0 SW 9 13 - - 11.4 - - - - - - -
27/08:00am 8.8 SW 9 14 - - 11.4 - - - - - - -
27/07:30am 8.4 SW 11 14 - - 11.4 - - - - - - -
27/07:00am 8.4 SW 7 8 - - 11.4 - - - - - - -
27/06:30am 8.3 SW 8 11 - - 11.4 - - - - - - -
27/06:00am 8.5 SW 11 16 - - 11.4 - - - - - - -
27/05:30am 8.5 SSW 12 17 - - 11.4 - - - - - - -
27/05:00am 8.7 SW 12 17 - - 11.4 - - - - - - -
27/04:30am 8.9 SW 13 17 - - 11.4 - - - - - - -
27/04:00am 9.1 SW 13 18 - - 11.4 - - - - - - -
27/03:30am 9.2 SW 13 19 - - 11.4 - - - - - - -
27/03:00am 9.1 SW 12 17 - - 11.4 - - - - - - -
27/02:30am 9.2 SW 13 18 - - 11.4 - - - - - - -
27/02:00am 9.2 SW 17 24 - - 11.4 - - - - - - -
27/01:30am 9.4 SW 14 21 - - 11.4 - - - - - - -
27/01:00am 9.5 SW 14 22 - - 11.4 - - - - - - -
27/12:30am 9.4 WSW 12 17 - - 11.4 - - - - - - -
27/12:00am 9.3 SW 10 13 - - 11.2 - - - - - - -
 
Date/Time
CST
Temp
°C
Wind Pressure Rain since
9am
mm
Weather Cloud Vis
km
Sea
Height
m
Swell
Dir  Spd
kts
Gust
kts
hPa Trend Height
m
Period
s
Dir
26/11:42pm 9.7 WSW 15 25 - - 11.2 - - - - - - -
26/11:30pm 9.0 W 10 14 - - 11.2 - - - - - - -
26/11:00pm 9.2 WSW 7 11 - - 11.2 - - - - - - -
26/10:30pm 9.6 WSW 12 16 - - 11.2 - - - - - - -
26/10:00pm 9.6 W 10 14 - - 11.2 - - - - - - -
26/09:30pm 9.9 WSW 12 16 - - 11.2 - - - - - - -
26/09:00pm 9.4 WSW 10 16 - - 11.2 - - - - - - -
26/08:30pm 9.4 W 10 13 - - 11.2 - - - - - - -
26/08:00pm 9.2 WSW 12 19 - - 11.2 - - - - - - -
26/07:30pm 9.3 WSW 12 15 - - 11.2 - - - - - - -
26/07:00pm 9.3 W 10 14 - - 11.2 - - - - - - -
26/06:30pm 9.2 W 12 16 - - 11.2 - - - - - - -
26/06:00pm 9.5 WSW 15 21 - - 11.2 Recent precip. - - - - - -
26/05:30pm 9.7 W 15 20 - - 11.0 - - - - - - -
26/05:23pm 9.8 WSW 18 29 - - 11.0 - - - - - - -
26/05:00pm 9.9 WSW 20 28 - - 11.0 - - - - - - -
26/04:30pm 10.2 W 17 25 - - 11.0 - - - - - - -
26/04:00pm 10.0 W 17 30 - - 11.0 - - - - - - -
26/03:40pm 9.6 WNW 25 41 - - 10.8 - - - - - - -
26/03:38pm 10.3 WNW 23 41 - - 10.6 - - - - - - -
26/03:30pm 10.3 WNW 19 30 - - 10.2 - - - - - - -
26/03:06pm 10.5 WNW 22 32 - - 9.6 - - - - - - -
26/03:00pm 10.3 WNW 23 30 - - 9.6 Recent precip. - - - - - -
26/02:47pm 10.5 NW 21 34 - - 9.6 - - - - - - -
26/02:30pm 10.3 NW 20 29 - - 9.0 - - - - - - -
26/02:08pm 9.5 NW 16 26 - - 7.6 - - - - - - -
26/02:00pm 9.6 NNW 19 27 - - 5.2 - - - - - - -
26/01:50pm 9.7 NW 19 30 - - 5.2 - - - - - - -
26/01:30pm 10.4 NW 20 30 - - 4.8 - - - - - - -
26/01:04pm 11.3 NW 17 31 - - 4.8 - - - - - - -
26/01:00pm 10.9 NW 16 24 - - 4.8 - - - - - - -
26/12:30pm 9.3 WNW 18 25 - - 4.6 - - - - - - -
26/12:07pm 9.3 WNW 21 33 - - 4.2 - - - - - - -
26/12:00pm 9.4 WNW 20 26 - - 4.2 Rain - - - - - -
26/11:30am 9.5 NW 15 20 - - 2.6 - - - - - - -
26/11:00am 9.0 NW 12 18 - - 2.2 - - - - - - -
26/10:30am 9.5 NW 15 21 - - 0.4 - - - - - - -
26/10:00am 10.7 NW 14 20 - - 0.2 - - - - - - -
26/09:30am 9.0 WNW 10 12 - - 0.2 - - - - - - -
26/09:00am 8.5 WNW 7 10 - - 2.8 - - - - - - -
26/08:30am 8.0 NW 12 18 - - 2.8 - - - - - - -
26/08:00am 7.4 NW 9 11 - - 2.8 - - - - - - -
26/07:30am 6.7 WNW 7 12 - - 2.8 - - - - - - -
26/07:00am 5.8 NW 6 7 - - 2.8 - - - - - - -
26/06:30am 7.0 WNW 11 17 - - 2.8 - - - - - - -
26/06:00am 5.5 NW 7 9 - - 2.6 - - - - - - -
26/05:30am 5.0 WNW 6 7 - - 2.6 - - - - - - -
26/05:00am 5.5 WNW 8 9 - - 2.6 - - - - - - -
26/04:30am 3.9 W 6 7 - - 2.6 - - - - - - -
26/04:00am 4.8 W 7 9 - - 2.6 - - - - - - -
26/03:30am 4.3 WNW 7 8 - - 2.6 - - - - - - -
26/03:00am 4.1 W 6 7 - - 2.6 - - - - - - -
26/02:30am 5.1 WNW 6 8 - - 2.6 - - - - - - -
26/02:00am 6.1 W 8 10 - - 2.6 - - - - - - -
26/01:30am 6.2 W 9 11 - - 2.6 - - - - - - -
26/01:00am 6.5 W 10 12 - - 2.6 - - - - - - -
26/12:30am 5.5 W 7 8 - - 2.6 - - - - - - -
26/12:00am 6.6 W 10 13 - - 2.6 - - - - - - -
 
Date/Time
CST
Temp
°C
Wind Pressure Rain since
9am
mm
Weather Cloud Vis
km
Sea
Height
m
Swell
Dir  Spd
kts
Gust
kts
hPa Trend Height
m
Period
s
Dir
25/11:30pm 6.1 W 10 13 - - 2.6 - - - - - - -
25/11:00pm 5.8 NW 8 10 - - 2.6 - - - - - - -
25/10:30pm 6.9 W 11 16 - - 2.4 - - - - - - -
25/10:00pm 6.7 W 10 12 - - 2.4 - - - - - - -
25/09:30pm 6.7 WNW 9 13 - - 2.4 - - - - - - -
25/09:00pm 6.5 WNW 6 9 - - 2.4 - - - - - - -
25/08:30pm 6.9 WNW 8 10 - - 2.4 - - - - - - -
25/08:00pm 7.2 W 11 16 - - 2.4 - - - - - - -
25/07:30pm 7.8 W 14 21 - - 2.4 - - - - - - -
25/07:00pm 7.4 W 14 20 - - 2.4 - - - - - - -
25/06:30pm 7.1 W 12 18 - - 2.4 - - - - - - -
25/06:00pm 7.5 WSW 17 25 - - 2.2 Rain - - - - - -
25/05:30pm 8.4 WSW 16 28 - - 2.0 - - - - - - -
25/05:29pm 8.5 W 15 28 - - 2.0 - - - - - - -
25/05:00pm 9.3 WSW 16 24 - - 2.0 - - - - - - -
25/04:30pm 9.8 WSW 15 23 - - 2.0 - - - - - - -
25/04:04pm 10.1 WSW 18 28 - - 2.0 - - - - - - -
25/04:00pm 10.3 WSW 17 25 - - 2.0 - - - - - - -
25/03:30pm 11.1 WSW 19 26 - - 2.0 - - - - - - -
25/03:00pm 10.3 WSW 17 27 - - 2.0 - - - - - - -
25/02:51pm 10.3 WSW 17 27 - - 2.0 - - - - - - -
25/02:30pm 10.2 WSW 21 30 - - 2.0 - - - - - - -
25/02:06pm 10.2 WSW 18 30 - - 2.0 - - - - - - -
25/02:00pm 10.7 WSW 19 25 - - 2.0 - - - - - - -
25/01:37pm 10.4 WSW 22 33 - - 2.0 - - - - - - -
25/01:30pm 10.5 WSW 22 31 - - 2.0 - - - - - - -
25/01:14pm 10.2 WSW 23 34 - - 2.0 - - - - - - -
25/01:00pm 10.6 W 27 45 - - 2.0 - - - - - - -
25/12:30pm 12.2 WNW 26 41 - - 1.4 - - - - - - -

Other Formats:

Comma delimited format used in spreadsheet applications
http://www.bom.gov.au/fwo/IDS60701/IDS60701.94807.axf

JavaScript Object Notation format (JSON) in row-major order
http://www.bom.gov.au/fwo/IDS60701/IDS60701.94807.json